createdAt,value
2022-10-18T00:00:20.473Z,96624.22
2022-10-18T00:02:47.406Z,96617.41
2022-10-18T00:05:14.398Z,96615.78
2022-10-18T00:07:41.242Z,96616.81
2022-10-18T00:10:08.947Z,96617.06
2022-10-18T00:12:37.849Z,96611.28
2022-10-18T00:15:07.039Z,96607.06
2022-10-18T00:17:38.869Z,96616.50
2022-10-18T00:20:07.047Z,96603.94
2022-10-18T00:22:39.100Z,96603.31
2022-10-18T00:25:07.650Z,96591.19
2022-10-18T00:27:35.092Z,96595.41
2022-10-18T00:30:01.903Z,96589.91
2022-10-18T00:32:29.060Z,96587.34
2022-10-18T00:34:56.177Z,96583.97
2022-10-18T00:37:22.925Z,96581.66
2022-10-18T00:39:50.296Z,96587.53
2022-10-18T00:42:21.733Z,96585.88
2022-10-18T00:44:51.543Z,96588.69
2022-10-18T00:47:19.848Z,96574.31
2022-10-18T00:49:51.768Z,96584.56
2022-10-18T00:52:24.211Z,96577.94
2022-10-18T00:54:52.586Z,96574.69
2022-10-18T00:57:19.590Z,96566.41
2022-10-18T00:59:47.181Z,96576.69
2022-10-18T01:02:18.511Z,96577.03
2022-10-18T01:04:46.536Z,96569.22
2022-10-18T01:07:38.030Z,96565.00
2022-10-18T01:10:30.666Z,96570.97
2022-10-18T01:13:24.863Z,96564.19
2022-10-18T01:16:07.645Z,96553.09
2022-10-18T01:19:01.209Z,96554.81
2022-10-18T01:21:48.605Z,96562.19
2022-10-18T01:24:46.360Z,96557.06
2022-10-18T01:27:34.866Z,96559.88
2022-10-18T01:30:36.843Z,96561.69
2022-10-18T01:33:25.081Z,96555.56
2022-10-18T01:35:59.351Z,96541.59
2022-10-18T01:38:27.505Z,96535.03
2022-10-18T01:40:56.439Z,96555.00
2022-10-18T01:43:25.035Z,96537.09
2022-10-18T01:45:54.862Z,96539.75
2022-10-18T01:48:24.151Z,96531.69
2022-10-18T01:50:53.196Z,96523.06
2022-10-18T01:53:32.826Z,96526.38
2022-10-18T01:56:27.448Z,96546.13
2022-10-18T01:59:11.950Z,96533.53
2022-10-18T02:01:46.903Z,96544.38
2022-10-18T02:04:37.705Z,96530.81
2022-10-18T02:07:17.203Z,96542.50
2022-10-18T02:09:52.756Z,96528.41
2022-10-18T02:12:21.819Z,96529.16
2022-10-18T02:14:50.641Z,96536.56
2022-10-18T02:17:21.282Z,96530.81
2022-10-18T02:19:52.535Z,96536.94
2022-10-18T02:22:20.807Z,96543.06
2022-10-18T02:24:52.250Z,96510.03
2022-10-18T02:27:20.109Z,96526.72
2022-10-18T02:29:47.957Z,96531.19
2022-10-18T02:32:39.974Z,96539.81
2022-10-18T02:35:39.237Z,96526.31
2022-10-18T02:38:07.886Z,96536.50
2022-10-18T02:40:34.894Z,96534.94
2022-10-18T02:43:01.747Z,96534.34
2022-10-18T02:45:29.029Z,96539.94
2022-10-18T02:47:55.871Z,96536.63
2022-10-18T02:50:22.778Z,96535.56
2022-10-18T02:52:49.611Z,96533.72
2022-10-18T02:55:16.823Z,96533.41
2022-10-18T02:57:43.833Z,96540.91
2022-10-18T03:00:11.255Z,96539.34
2022-10-18T03:02:38.102Z,96541.84
2022-10-18T03:05:05.214Z,96540.19
2022-10-18T03:07:32.172Z,96535.31
2022-10-18T03:09:59.131Z,96531.16
2022-10-18T03:12:25.889Z,96526.16
2022-10-18T03:14:52.733Z,96537.22
2022-10-18T03:17:19.586Z,96525.31
2022-10-18T03:19:46.385Z,96526.25
2022-10-18T03:22:13.207Z,96527.31
2022-10-18T03:24:40.045Z,96526.00
2022-10-18T03:27:06.978Z,96541.19
2022-10-18T03:29:33.716Z,96537.97
2022-10-18T03:32:00.495Z,96535.75
2022-10-18T03:34:27.292Z,96530.81
2022-10-18T03:36:55.110Z,96531.63
2022-10-18T03:39:21.917Z,96532.69
2022-10-18T03:41:48.798Z,96525.00
2022-10-18T03:44:15.554Z,96530.97
2022-10-18T03:46:42.355Z,96539.56
2022-10-18T03:49:09.119Z,96539.22
2022-10-18T03:51:36.001Z,96535.75
2022-10-18T03:54:02.900Z,96547.47
2022-10-18T03:56:29.729Z,96545.00
2022-10-18T03:58:57.303Z,96552.97
2022-10-18T04:01:24.206Z,96544.44
2022-10-18T04:03:51.052Z,96538.66
2022-10-18T04:06:17.822Z,96543.19
2022-10-18T04:08:44.622Z,96543.94
2022-10-18T04:11:12.260Z,96527.50
2022-10-18T04:13:39.323Z,96543.94
2022-10-18T04:16:06.324Z,96539.66
2022-10-18T04:18:33.179Z,96524.69
2022-10-18T04:20:59.979Z,96538.81
2022-10-18T04:23:26.763Z,96537.31
2022-10-18T04:25:53.557Z,96547.50
2022-10-18T04:28:20.370Z,96547.41
2022-10-18T04:30:53.879Z,96545.00
2022-10-18T04:33:20.745Z,96536.25
2022-10-18T04:35:50.911Z,96538.06
2022-10-18T04:38:17.725Z,96537.25
2022-10-18T04:40:44.536Z,96542.38
2022-10-18T04:43:11.364Z,96538.16
2022-10-18T04:45:38.302Z,96535.75
2022-10-18T04:48:05.304Z,96538.75
2022-10-18T04:50:32.212Z,96529.72
2022-10-18T04:52:59.215Z,96534.91
2022-10-18T04:55:26.143Z,96525.03
2022-10-18T04:57:53.774Z,96521.72
2022-10-18T05:00:21.020Z,96519.84
2022-10-18T05:02:47.825Z,96525.78
2022-10-18T05:05:14.770Z,96527.81
2022-10-18T05:07:41.841Z,96519.91
2022-10-18T05:10:16.473Z,96530.63
2022-10-18T05:12:43.992Z,96520.28
2022-10-18T05:15:10.926Z,96526.00
2022-10-18T05:17:37.760Z,96510.81
2022-10-18T05:20:05.107Z,96520.88
2022-10-18T05:22:32.317Z,96511.78
2022-10-18T05:24:59.295Z,96516.91
2022-10-18T05:27:26.144Z,96527.47
2022-10-18T05:29:52.981Z,96528.81
2022-10-18T05:32:19.930Z,96533.47
2022-10-18T05:34:46.740Z,96523.72
2022-10-18T05:37:13.973Z,96529.03
2022-10-18T05:39:40.871Z,96537.69
2022-10-18T05:42:08.865Z,96518.56
2022-10-18T05:44:35.742Z,96534.41
2022-10-18T05:47:02.563Z,96531.56
2022-10-18T05:49:29.394Z,96528.94
2022-10-18T05:51:56.299Z,96541.13
2022-10-18T05:54:23.197Z,96530.88
2022-10-18T05:56:49.972Z,96534.84
2022-10-18T05:59:16.777Z,96532.78
2022-10-18T06:01:44.091Z,96533.31
2022-10-18T06:04:11.109Z,96532.16
2022-10-18T06:06:39.265Z,96534.28
2022-10-18T06:09:08.200Z,96532.00
2022-10-18T06:11:37.052Z,96537.97
2022-10-18T06:14:04.504Z,96536.44
2022-10-18T06:16:32.546Z,96528.09
2022-10-18T06:19:00.241Z,96531.69
2022-10-18T06:21:27.557Z,96527.66
2022-10-18T06:23:56.970Z,96528.38
2022-10-18T06:26:24.606Z,96528.66
2022-10-18T06:28:51.620Z,96525.59
2022-10-18T06:31:21.413Z,96527.31
2022-10-18T06:33:48.675Z,96531.50
2022-10-18T06:36:22.414Z,96528.88
2022-10-18T06:38:49.908Z,96528.72
2022-10-18T06:41:18.185Z,96527.09
2022-10-18T06:43:52.058Z,96529.81
2022-10-18T06:46:19.919Z,96526.91
2022-10-18T06:48:47.233Z,96523.59
2022-10-18T06:51:15.380Z,96527.31
2022-10-18T06:53:44.341Z,96515.16
2022-10-18T06:56:15.570Z,96518.78
2022-10-18T06:58:42.366Z,96523.75
2022-10-18T07:01:12.891Z,96518.06
2022-10-18T07:03:40.205Z,96521.50
2022-10-18T07:06:11.409Z,96516.31
2022-10-18T07:08:39.495Z,96519.09
2022-10-18T07:11:07.807Z,96524.00
2022-10-18T07:13:35.307Z,96521.13
2022-10-18T07:16:14.096Z,96508.03
2022-10-18T07:18:46.809Z,96518.53
2022-10-18T07:21:15.222Z,96523.44
2022-10-18T07:23:49.479Z,96509.63
2022-10-18T07:26:21.401Z,96503.44
2022-10-18T07:28:51.625Z,96508.19
2022-10-18T07:31:19.010Z,96495.56
2022-10-18T07:33:45.935Z,96500.47
2022-10-18T07:36:13.924Z,96471.66
2022-10-18T07:38:41.415Z,96507.25
2022-10-18T07:41:10.490Z,96481.28
2022-10-18T07:43:37.439Z,96484.00
2022-10-18T07:46:06.137Z,96482.03
2022-10-18T07:48:33.303Z,96477.34
2022-10-18T07:51:01.894Z,96449.38
2022-10-18T07:53:29.879Z,96477.59
2022-10-18T07:56:03.529Z,96441.28
2022-10-18T07:58:34.687Z,96483.44
2022-10-18T08:01:06.411Z,96481.41
2022-10-18T08:03:33.741Z,96483.66
2022-10-18T08:06:00.719Z,96470.53
2022-10-18T08:08:28.536Z,96476.19
2022-10-18T08:10:55.612Z,96471.91
2022-10-18T08:13:22.562Z,96460.25
2022-10-18T08:15:49.388Z,96456.69
2022-10-18T08:18:16.277Z,96456.75
2022-10-18T08:20:46.683Z,96457.94
2022-10-18T08:23:13.470Z,96445.94
2022-10-18T08:25:42.157Z,96445.69
2022-10-18T08:28:09.116Z,96443.00
2022-10-18T08:30:36.491Z,96438.78
2022-10-18T08:33:04.233Z,96429.94
2022-10-18T08:35:32.108Z,96421.78
2022-10-18T08:37:59.517Z,96420.59
2022-10-18T08:40:27.909Z,96414.38
2022-10-18T08:43:07.275Z,96407.84
2022-10-18T08:45:42.345Z,96399.03
2022-10-18T08:48:21.981Z,96407.88
2022-10-18T08:50:50.458Z,96379.72
2022-10-18T08:53:39.285Z,96387.63
2022-10-18T08:56:21.683Z,96383.53
2022-10-18T08:58:48.835Z,96379.22
2022-10-18T09:01:27.818Z,96385.50
2022-10-18T09:04:15.492Z,96382.59
2022-10-18T09:06:52.575Z,96378.31
2022-10-18T09:09:41.139Z,96379.72
2022-10-18T09:12:13.888Z,96377.50
2022-10-18T09:14:49.819Z,96375.91
2022-10-18T09:17:44.107Z,96371.22
2022-10-18T09:20:24.929Z,96370.25
2022-10-18T09:23:38.236Z,96372.81
2022-10-18T09:26:16.226Z,96364.34
2022-10-18T09:29:07.650Z,96365.41
2022-10-18T09:31:50.310Z,96354.38
2022-10-18T09:34:38.168Z,96355.69
2022-10-18T09:37:05.382Z,96347.88
2022-10-18T09:39:38.032Z,96355.38
2022-10-18T09:42:26.691Z,96352.91
2022-10-18T09:45:03.936Z,96342.25
2022-10-18T09:47:41.581Z,96345.78
2022-10-18T09:50:25.940Z,96336.13
2022-10-18T09:53:26.584Z,96344.38
2022-10-18T09:56:02.175Z,96340.63
2022-10-18T09:58:44.736Z,96326.38
2022-10-18T10:01:15.960Z,96331.09
2022-10-18T10:03:43.110Z,96317.81
2022-10-18T10:06:31.476Z,96306.88
2022-10-18T10:09:14.810Z,96302.72
2022-10-18T10:11:46.012Z,96299.19
2022-10-18T10:17:07.449Z,96284.09
2022-10-18T10:19:56.930Z,96276.28
2022-10-18T10:22:39.100Z,96265.06
2022-10-18T10:25:07.780Z,96265.53
2022-10-18T10:27:44.177Z,96257.84
2022-10-18T10:30:38.618Z,96251.09
2022-10-18T10:33:06.643Z,96242.59
2022-10-18T10:35:53.020Z,96249.19
2022-10-18T10:38:29.460Z,96240.47
2022-10-18T10:40:57.246Z,96233.53
2022-10-18T10:43:40.012Z,96224.19
2022-10-18T10:46:10.679Z,96216.03
2022-10-18T10:49:03.272Z,96214.47
2022-10-18T10:51:40.905Z,96214.09
2022-10-18T10:54:18.677Z,96195.19
2022-10-18T10:56:54.684Z,96197.59
2022-10-18T10:59:24.209Z,96189.38
2022-10-18T11:02:20.777Z,96182.19
2022-10-18T11:04:52.293Z,96174.75
2022-10-18T11:07:36.710Z,96172.13
2022-10-18T11:10:30.992Z,96173.75
2022-10-18T11:13:27.106Z,96170.47
2022-10-18T11:16:00.583Z,96164.22
2022-10-18T11:18:34.112Z,96156.28
2022-10-18T11:21:08.813Z,96148.16
2022-10-18T11:23:38.558Z,96148.34
2022-10-18T11:26:11.403Z,96147.78
2022-10-18T11:29:16.904Z,96134.78
2022-10-18T11:31:51.058Z,96126.66
2022-10-18T11:34:43.524Z,96128.06
2022-10-18T11:37:28.641Z,96113.16
2022-10-18T11:40:29.376Z,96103.25
2022-10-18T11:43:38.906Z,96086.97
2022-10-18T11:46:11.929Z,96098.34
2022-10-18T11:48:58.180Z,96089.81
2022-10-18T11:51:56.073Z,96083.22
2022-10-18T11:54:34.483Z,96085.66
2022-10-18T11:57:42.832Z,96080.38
2022-10-18T12:00:21.388Z,96073.97
2022-10-18T12:02:54.434Z,96073.91
2022-10-18T12:05:23.947Z,96070.72
2022-10-18T12:08:18.601Z,96064.34
2022-10-18T12:11:06.700Z,96046.25
2022-10-18T12:13:47.937Z,96051.00
2022-10-18T12:16:16.923Z,96049.97
2022-10-18T12:18:56.631Z,96049.72
2022-10-18T12:21:26.719Z,96019.47
2022-10-18T12:23:56.521Z,96033.50
2022-10-18T12:26:26.153Z,96031.88
2022-10-18T12:29:35.162Z,96027.63
2022-10-18T12:32:06.040Z,96016.03
2022-10-18T12:34:39.001Z,96018.06
2022-10-18T12:37:17.681Z,96012.84
2022-10-18T12:40:05.432Z,96011.16
2022-10-18T12:42:41.763Z,96000.81
2022-10-18T12:45:33.457Z,96005.81
2022-10-18T12:48:06.973Z,96002.75
2022-10-18T12:50:38.405Z,96005.34
2022-10-18T12:53:23.102Z,95991.28
2022-10-18T12:55:52.041Z,95992.31
2022-10-18T12:58:29.588Z,95987.75
2022-10-18T13:00:58.403Z,95985.56
2022-10-18T13:03:25.048Z,95989.38
2022-10-18T13:06:02.907Z,95991.59
2022-10-18T13:08:38.470Z,95990.88
2022-10-18T13:11:08.184Z,95982.34
2022-10-18T13:13:56.819Z,95979.28
2022-10-18T13:16:23.613Z,95976.31
2022-10-18T13:19:10.198Z,95966.09
2022-10-18T13:21:54.965Z,95969.19
2022-10-18T13:24:35.683Z,95963.47
2022-10-18T13:27:35.600Z,95950.81
2022-10-18T13:30:03.328Z,95953.84
2022-10-18T13:32:58.801Z,95953.09
2022-10-18T13:35:46.338Z,95961.03
2022-10-18T13:38:39.040Z,95939.16
2022-10-18T13:41:09.339Z,95946.72
2022-10-18T13:44:14.560Z,95944.09
2022-10-18T13:46:47.960Z,95939.75
2022-10-18T13:49:17.672Z,95935.63
2022-10-18T13:51:53.647Z,95933.44
2022-10-18T13:54:38.753Z,95931.81
2022-10-18T13:57:23.905Z,95922.41
2022-10-18T14:00:02.983Z,95922.97
2022-10-18T14:03:27.134Z,95923.72
2022-10-18T14:06:15.535Z,95929.41
2022-10-18T14:08:44.781Z,95919.63
2022-10-18T14:11:36.300Z,95903.59
2022-10-18T14:14:30.120Z,95920.03
2022-10-18T14:17:06.945Z,95924.59
2022-10-18T14:19:56.789Z,95917.66
2022-10-18T14:22:37.131Z,95921.28
2022-10-18T14:25:04.325Z,95912.69
2022-10-18T14:27:33.105Z,95912.88
2022-10-18T14:30:20.777Z,95907.75
2022-10-18T14:32:50.627Z,95907.69
2022-10-18T14:35:39.169Z,95905.19
2022-10-18T14:38:06.867Z,95907.56
2022-10-18T14:40:39.204Z,95900.75
2022-10-18T14:43:12.365Z,95904.38
2022-10-18T14:45:41.054Z,95896.13
2022-10-18T14:48:18.163Z,95894.94
2022-10-18T14:50:49.610Z,95884.25
2022-10-18T14:53:22.413Z,95883.78
2022-10-18T14:56:01.392Z,95891.69
2022-10-18T14:58:29.298Z,95892.69
2022-10-18T15:00:58.931Z,95896.25
2022-10-18T15:03:28.796Z,95891.75
2022-10-18T15:06:00.361Z,95882.34
2022-10-18T15:08:37.482Z,95883.63
2022-10-18T15:11:06.112Z,95885.22
2022-10-18T15:13:44.945Z,95872.66
2022-10-18T15:16:21.330Z,95887.63
2022-10-18T15:19:12.568Z,95887.53
2022-10-18T15:22:30.919Z,95884.38
2022-10-18T15:25:15.122Z,95885.81
2022-10-18T15:27:48.214Z,95881.50
2022-10-18T15:30:28.534Z,95880.19
2022-10-18T15:33:02.266Z,95887.28
2022-10-18T15:35:35.539Z,95876.59
2022-10-18T15:38:27.667Z,95888.97
2022-10-18T15:40:55.127Z,95875.09
2022-10-18T15:43:24.807Z,95875.38
2022-10-18T15:46:01.716Z,95883.56
2022-10-18T15:48:40.658Z,95888.09
2022-10-18T15:51:12.958Z,95889.22
2022-10-18T15:53:51.496Z,95877.97
2022-10-18T15:56:32.272Z,95888.53
2022-10-18T15:59:20.788Z,95876.72
2022-10-18T16:01:47.814Z,95884.03
2022-10-18T16:04:23.262Z,95892.63
2022-10-18T16:06:50.217Z,95885.72
2022-10-18T16:09:19.529Z,95903.78
2022-10-18T16:11:47.387Z,95898.63
2022-10-18T16:14:14.305Z,95900.78
2022-10-18T16:16:41.511Z,95902.16
2022-10-18T16:19:10.343Z,95893.09
2022-10-18T16:21:39.422Z,95901.66
2022-10-18T16:24:06.688Z,95896.06
2022-10-18T16:26:35.034Z,95905.03
2022-10-18T16:29:02.056Z,95903.22
2022-10-18T16:31:33.045Z,95900.94
2022-10-18T16:34:00.836Z,95912.63
2022-10-18T16:36:32.806Z,95914.31
2022-10-18T16:39:04.703Z,95914.53
2022-10-18T16:41:31.502Z,95908.72
2022-10-18T16:43:58.386Z,95909.72
2022-10-18T16:46:29.665Z,95919.84
2022-10-18T16:48:57.359Z,95928.81
2022-10-18T16:51:24.740Z,95915.69
2022-10-18T16:53:53.603Z,95927.13
2022-10-18T16:56:26.279Z,95931.53
2022-10-18T16:58:53.197Z,95926.31
2022-10-18T17:01:22.631Z,95930.19
2022-10-18T17:03:52.275Z,95924.13
2022-10-18T17:06:28.318Z,95934.34
2022-10-18T17:08:56.871Z,95933.81
2022-10-18T17:11:26.251Z,95928.41
2022-10-18T17:13:53.294Z,95917.13
2022-10-18T17:16:32.137Z,95936.88
2022-10-18T17:19:01.609Z,95924.72
2022-10-18T17:21:29.685Z,95929.50
2022-10-18T17:24:00.654Z,95923.25
2022-10-18T17:26:29.628Z,95921.25
2022-10-18T17:29:03.986Z,95928.44
2022-10-18T17:31:31.692Z,95923.34
2022-10-18T17:34:01.793Z,95917.03
2022-10-18T17:36:30.993Z,95919.19
2022-10-18T17:38:58.390Z,95920.66
2022-10-18T17:41:25.438Z,95936.16
2022-10-18T17:43:52.305Z,95922.56
2022-10-18T17:46:19.781Z,95922.63
2022-10-18T17:48:47.147Z,95920.84
2022-10-18T17:51:16.598Z,95927.81
2022-10-18T17:53:43.942Z,95920.75
2022-10-18T17:56:12.241Z,95926.69
2022-10-18T17:58:39.317Z,95926.16
2022-10-18T18:01:15.561Z,95925.22
2022-10-18T18:03:42.941Z,95921.06
2022-10-18T18:06:17.032Z,95926.44
2022-10-18T18:08:44.896Z,95932.88
2022-10-18T18:11:12.183Z,95931.00
2022-10-18T18:13:39.297Z,95919.59
2022-10-18T18:16:17.955Z,95930.75
2022-10-18T18:18:47.144Z,95924.09
2022-10-18T18:21:14.236Z,95919.34
2022-10-18T18:23:41.632Z,95926.13
2022-10-18T18:26:08.938Z,95930.50
2022-10-18T18:28:36.602Z,95927.13
2022-10-18T18:31:14.777Z,95921.53
2022-10-18T18:33:42.365Z,95922.63
2022-10-18T18:36:12.079Z,95921.16
2022-10-18T18:38:42.947Z,95919.09
2022-10-18T18:41:13.027Z,95919.94
2022-10-18T18:43:42.488Z,95915.69
2022-10-18T18:46:10.593Z,95919.66
2022-10-18T18:48:37.889Z,95903.31
2022-10-18T18:51:06.164Z,95914.91
2022-10-18T18:53:33.055Z,95913.66
2022-10-18T18:56:05.830Z,95910.41
2022-10-18T18:58:34.884Z,95910.41
2022-10-18T19:01:11.204Z,95917.72
2022-10-18T19:03:40.974Z,95914.97
2022-10-18T19:06:11.101Z,95912.78
2022-10-18T19:08:40.064Z,95914.16
2022-10-18T19:11:09.337Z,95913.72
2022-10-18T19:13:36.721Z,95912.06
2022-10-18T19:16:26.848Z,95913.16
2022-10-18T19:18:55.322Z,95917.06
2022-10-18T19:21:24.218Z,95908.34
2022-10-18T19:23:51.574Z,95918.50
2022-10-18T19:26:25.872Z,95920.78
2022-10-18T19:28:52.857Z,95921.59
2022-10-18T19:31:20.197Z,95898.69
2022-10-18T19:33:58.962Z,95912.16
2022-10-18T19:36:26.924Z,95919.34
2022-10-18T19:38:53.819Z,95916.72
2022-10-18T19:41:21.614Z,95915.22
2022-10-18T19:43:48.577Z,95909.16
2022-10-18T19:46:15.510Z,95900.19
2022-10-18T19:48:42.698Z,95898.22
2022-10-18T19:51:17.381Z,95903.88
2022-10-18T19:53:48.225Z,95908.34
2022-10-18T19:56:21.053Z,95896.56
2022-10-18T19:58:48.356Z,95885.66
2022-10-18T20:01:16.454Z,95886.59
2022-10-18T20:03:44.594Z,95892.94
2022-10-18T20:06:11.647Z,95885.59
2022-10-18T20:08:39.483Z,95896.59
2022-10-18T20:11:10.281Z,95896.47
2022-10-18T20:13:38.083Z,95890.50
2022-10-18T20:16:07.425Z,95892.50
2022-10-18T20:18:34.761Z,95885.28
2022-10-18T20:21:05.839Z,95892.38
2022-10-18T20:23:34.785Z,95888.28
2022-10-18T20:26:04.756Z,95882.25
2022-10-18T20:28:32.226Z,95878.16
2022-10-18T20:31:11.375Z,95886.03
2022-10-18T20:33:38.852Z,95878.13
2022-10-18T20:36:17.617Z,95878.72
2022-10-18T20:38:46.475Z,95886.13
2022-10-18T20:41:24.865Z,95892.59
2022-10-18T20:43:53.496Z,95892.97
2022-10-18T20:46:21.297Z,95881.63
2022-10-18T20:48:50.009Z,95877.81
2022-10-18T20:51:19.759Z,95874.66
2022-10-18T20:53:47.047Z,95871.25
2022-10-18T20:56:20.540Z,95889.66
2022-10-18T20:58:50.058Z,95880.75
2022-10-18T21:01:18.468Z,95877.63
2022-10-18T21:03:47.031Z,95872.72
2022-10-18T21:06:18.400Z,95878.09
2022-10-18T21:08:46.123Z,95872.72
2022-10-18T21:11:14.451Z,95873.53
2022-10-18T21:13:41.449Z,95869.25
2022-10-18T21:16:08.720Z,95872.88
2022-10-18T21:18:37.151Z,95867.38
2022-10-18T21:21:16.242Z,95863.41
2022-10-18T21:23:44.028Z,95856.88
2022-10-18T21:26:16.021Z,95853.13
2022-10-18T21:28:44.248Z,95847.53
2022-10-18T21:31:22.986Z,95853.72
2022-10-18T21:33:54.492Z,95851.50
2022-10-18T21:36:22.192Z,95841.91
2022-10-18T21:38:50.269Z,95837.94
2022-10-18T21:41:18.723Z,95818.78
2022-10-18T21:43:53.460Z,95824.63
2022-10-18T21:46:22.504Z,95822.03
2022-10-18T21:48:53.716Z,95818.66
2022-10-18T21:51:22.695Z,95821.34
2022-10-18T21:53:51.933Z,95817.94
2022-10-18T21:56:21.847Z,95815.50
2022-10-18T21:58:49.153Z,95813.84
2022-10-18T22:01:28.109Z,95810.47
2022-10-18T22:03:57.013Z,95805.66
2022-10-18T22:06:24.977Z,95804.84
2022-10-18T22:08:54.840Z,95805.09
2022-10-18T22:11:25.138Z,95803.66
2022-10-18T22:13:53.093Z,95799.34
2022-10-18T22:16:20.095Z,95798.75
2022-10-18T22:18:48.700Z,95805.53
2022-10-18T22:21:17.197Z,95797.00
2022-10-18T22:23:49.504Z,95800.97
2022-10-18T22:26:22.514Z,95797.69
2022-10-18T22:28:59.107Z,95803.97
2022-10-18T22:31:30.118Z,95796.75
2022-10-18T22:33:59.260Z,95793.94
2022-10-18T22:36:26.309Z,95794.75
2022-10-18T22:38:53.843Z,95796.38
2022-10-18T22:41:22.250Z,95787.97
2022-10-18T22:43:52.563Z,95777.56
2022-10-18T22:46:19.918Z,95785.16
2022-10-18T22:48:47.349Z,95774.28
2022-10-18T22:51:15.757Z,95768.56
2022-10-18T22:53:42.631Z,95779.44
2022-10-18T22:56:12.832Z,95776.06
2022-10-18T22:58:39.688Z,95764.34
2022-10-18T23:01:11.718Z,95781.31
2022-10-18T23:03:39.266Z,95773.69
2022-10-18T23:06:17.329Z,95753.47
2022-10-18T23:08:44.180Z,95764.69
2022-10-18T23:11:11.037Z,95759.56
2022-10-18T23:13:39.586Z,95751.41
2022-10-18T23:16:06.894Z,95764.47
2022-10-18T23:18:34.055Z,95758.84
2022-10-18T23:21:03.291Z,95759.66
2022-10-18T23:23:34.848Z,95751.25
2022-10-18T23:26:07.356Z,95756.59
2022-10-18T23:28:38.453Z,95751.56
2022-10-18T23:31:08.006Z,95744.53
2022-10-18T23:33:35.025Z,95749.09
2022-10-18T23:36:02.310Z,95740.56
2022-10-18T23:38:30.992Z,95733.28
2022-10-18T23:40:58.347Z,95728.97
2022-10-18T23:43:25.544Z,95733.91
2022-10-18T23:45:52.381Z,95722.22
2022-10-18T23:48:19.370Z,95734.59
2022-10-18T23:50:46.314Z,95730.28
2022-10-18T23:53:13.212Z,95728.06
2022-10-18T23:55:39.988Z,95717.41
2022-10-18T23:58:06.891Z,95727.22
